sensor_id;sensor_type;location;lat;lon;timestamp;temperature;humidity
3198;DHT22;1611;49.394;11.136;2024-03-25T00:01:02;6.00;64.50
3198;DHT22;1611;49.394;11.136;2024-03-25T00:03:28;6.00;63.60
3198;DHT22;1611;49.394;11.136;2024-03-25T00:05:55;6.00;63.60
3198;DHT22;1611;49.394;11.136;2024-03-25T00:08:22;6.00;63.90
3198;DHT22;1611;49.394;11.136;2024-03-25T00:10:49;6.00;63.80
3198;DHT22;1611;49.394;11.136;2024-03-25T00:13:14;6.00;63.90
3198;DHT22;1611;49.394;11.136;2024-03-25T00:15:41;6.10;64.50
3198;DHT22;1611;49.394;11.136;2024-03-25T00:18:08;6.10;63.10
3198;DHT22;1611;49.394;11.136;2024-03-25T00:20:36;6.20;62.80
3198;DHT22;1611;49.394;11.136;2024-03-25T00:23:02;6.20;63.10
3198;DHT22;1611;49.394;11.136;2024-03-25T00:25:29;6.10;62.60
3198;DHT22;1611;49.394;11.136;2024-03-25T00:27:54;6.10;63.30
3198;DHT22;1611;49.394;11.136;2024-03-25T00:30:22;6.10;62.50
3198;DHT22;1611;49.394;11.136;2024-03-25T00:32:48;6.20;62.10
3198;DHT22;1611;49.394;11.136;2024-03-25T00:35:15;6.10;62.00
3198;DHT22;1611;49.394;11.136;2024-03-25T00:37:41;6.20;62.10
3198;DHT22;1611;49.394;11.136;2024-03-25T00:40:08;6.10;62.00
3198;DHT22;1611;49.394;11.136;2024-03-25T00:42:34;6.10;62.20
3198;DHT22;1611;49.394;11.136;2024-03-25T00:45:01;6.20;62.30
3198;DHT22;1611;49.394;11.136;2024-03-25T00:47:26;6.10;61.70
3198;DHT22;1611;49.394;11.136;2024-03-25T00:49:53;6.10;62.40
3198;DHT22;1611;49.394;11.136;2024-03-25T00:52:20;6.20;62.50
3198;DHT22;1611;49.394;11.136;2024-03-25T00:54:47;6.10;61.30
3198;DHT22;1611;49.394;11.136;2024-03-25T00:57:12;6.20;61.40
3198;DHT22;1611;49.394;11.136;2024-03-25T00:59:40;6.20;61.00
3198;DHT22;1611;49.394;11.136;2024-03-25T01:02:05;6.10;60.80
3198;DHT22;1611;49.394;11.136;2024-03-25T01:04:33;6.20;61.40
3198;DHT22;1611;49.394;11.136;2024-03-25T01:06:59;6.20;60.80
3198;DHT22;1611;49.394;11.136;2024-03-25T01:09:27;6.20;60.20
3198;DHT22;1611;49.394;11.136;2024-03-25T01:11:53;6.10;60.70
3198;DHT22;1611;49.394;11.136;2024-03-25T01:14:19;6.10;61.00
3198;DHT22;1611;49.394;11.136;2024-03-25T01:16:45;6.10;60.50
3198;DHT22;1611;49.394;11.136;2024-03-25T01:19:11;6.20;60.60
3198;DHT22;1611;49.394;11.136;2024-03-25T01:21:37;6.20;61.00
3198;DHT22;1611;49.394;11.136;2024-03-25T01:24:04;6.30;60.10
3198;DHT22;1611;49.394;11.136;2024-03-25T01:26:31;6.40;58.70
3198;DHT22;1611;49.394;11.136;2024-03-25T01:28:58;6.30;59.00
3198;DHT22;1611;49.394;11.136;2024-03-25T01:31:24;6.30;59.70
3198;DHT22;1611;49.394;11.136;2024-03-25T01:33:50;6.40;59.00
3198;DHT22;1611;49.394;11.136;2024-03-25T01:36:16;6.30;57.90
3198;DHT22;1611;49.394;11.136;2024-03-25T01:38:43;6.30;58.30
3198;DHT22;1611;49.394;11.136;2024-03-25T01:41:09;6.40;58.50
3198;DHT22;1611;49.394;11.136;2024-03-25T01:43:38;6.40;58.50
3198;DHT22;1611;49.394;11.136;2024-03-25T01:46:04;6.30;56.30
3198;DHT22;1611;49.394;11.136;2024-03-25T01:48:31;6.30;57.30
3198;DHT22;1611;49.394;11.136;2024-03-25T01:50:58;6.30;57.70
3198;DHT22;1611;49.394;11.136;2024-03-25T01:53:26;6.30;57.60
3198;DHT22;1611;49.394;11.136;2024-03-25T01:55:54;6.20;56.20
3198;DHT22;1611;49.394;11.136;2024-03-25T01:58:23;6.20;57.10
3198;DHT22;1611;49.394;11.136;2024-03-25T02:00:50;6.20;57.40
3198;DHT22;1611;49.394;11.136;2024-03-25T02:03:18;6.30;57.80
3198;DHT22;1611;49.394;11.136;2024-03-25T02:05:44;6.30;57.10
3198;DHT22;1611;49.394;11.136;2024-03-25T02:08:11;6.30;57.30
3198;DHT22;1611;49.394;11.136;2024-03-25T02:10:38;6.30;57.30
3198;DHT22;1611;49.394;11.136;2024-03-25T02:13:05;6.20;58.00
3198;DHT22;1611;49.394;11.136;2024-03-25T02:15:31;6.20;58.00
3198;DHT22;1611;49.394;11.136;2024-03-25T02:17:59;6.30;57.90
3198;DHT22;1611;49.394;11.136;2024-03-25T02:20:25;6.30;57.30
3198;DHT22;1611;49.394;11.136;2024-03-25T02:22:52;6.40;57.60
3198;DHT22;1611;49.394;11.136;2024-03-25T02:25:17;6.40;58.00
3198;DHT22;1611;49.394;11.136;2024-03-25T02:27:45;6.40;56.70
3198;DHT22;1611;49.394;11.136;2024-03-25T02:30:13;6.50;57.00
3198;DHT22;1611;49.394;11.136;2024-03-25T02:32:40;6.30;56.30
3198;DHT22;1611;49.394;11.136;2024-03-25T02:35:09;6.40;57.00
3198;DHT22;1611;49.394;11.136;2024-03-25T02:37:37;6.30;57.00
3198;DHT22;1611;49.394;11.136;2024-03-25T02:40:06;6.30;57.70
3198;DHT22;1611;49.394;11.136;2024-03-25T02:42:34;6.30;57.10
3198;DHT22;1611;49.394;11.136;2024-03-25T02:45:02;6.30;57.40
3198;DHT22;1611;49.394;11.136;2024-03-25T02:47:29;6.30;58.10
3198;DHT22;1611;49.394;11.136;2024-03-25T02:49:55;6.30;58.20
3198;DHT22;1611;49.394;11.136;2024-03-25T02:52:22;6.40;57.20
3198;DHT22;1611;49.394;11.136;2024-03-25T02:54:47;6.40;57.90
3198;DHT22;1611;49.394;11.136;2024-03-25T02:57:14;6.50;57.30
3198;DHT22;1611;49.394;11.136;2024-03-25T02:59:40;6.50;57.50
3198;DHT22;1611;49.394;11.136;2024-03-25T03:02:08;6.50;56.60
3198;DHT22;1611;49.394;11.136;2024-03-25T03:04:33;6.40;56.40
3198;DHT22;1611;49.394;11.136;2024-03-25T03:07:00;6.50;57.00
3198;DHT22;1611;49.394;11.136;2024-03-25T03:09:26;6.50;57.60
3198;DHT22;1611;49.394;11.136;2024-03-25T03:11:52;6.40;56.80
3198;DHT22;1611;49.394;11.136;2024-03-25T03:14:18;6.40;56.70
3198;DHT22;1611;49.394;11.136;2024-03-25T03:16:45;6.40;56.70
3198;DHT22;1611;49.394;11.136;2024-03-25T03:19:12;6.40;57.10
3198;DHT22;1611;49.394;11.136;2024-03-25T03:21:39;6.40;57.30
3198;DHT22;1611;49.394;11.136;2024-03-25T03:24:05;6.40;56.80
3198;DHT22;1611;49.394;11.136;2024-03-25T03:26:31;6.40;57.40
3198;DHT22;1611;49.394;11.136;2024-03-25T03:28:57;6.40;57.10
3198;DHT22;1611;49.394;11.136;2024-03-25T03:31:25;6.40;56.90
3198;DHT22;1611;49.394;11.136;2024-03-25T03:33:51;6.40;56.30
3198;DHT22;1611;49.394;11.136;2024-03-25T03:36:21;6.30;57.50
3198;DHT22;1611;49.394;11.136;2024-03-25T03:38:47;6.20;57.70
3198;DHT22;1611;49.394;11.136;2024-03-25T03:41:16;6.20;58.00
3198;DHT22;1611;49.394;11.136;2024-03-25T03:43:42;6.20;57.90
3198;DHT22;1611;49.394;11.136;2024-03-25T03:46:08;6.30;59.00
3198;DHT22;1611;49.394;11.136;2024-03-25T03:48:34;6.30;58.60
3198;DHT22;1611;49.394;11.136;2024-03-25T03:51:02;6.30;59.20
3198;DHT22;1611;49.394;11.136;2024-03-25T03:53:29;6.40;59.10
3198;DHT22;1611;49.394;11.136;2024-03-25T03:55:57;6.50;57.90
3198;DHT22;1611;49.394;11.136;2024-03-25T03:58:24;6.40;57.70
3198;DHT22;1611;49.394;11.136;2024-03-25T04:00:51;6.40;57.50
3198;DHT22;1611;49.394;11.136;2024-03-25T04:03:18;6.50;57.70
3198;DHT22;1611;49.394;11.136;2024-03-25T04:05:45;6.30;57.40
3198;DHT22;1611;49.394;11.136;2024-03-25T04:08:10;6.30;58.50
3198;DHT22;1611;49.394;11.136;2024-03-25T04:10:39;6.30;58.20
3198;DHT22;1611;49.394;11.136;2024-03-25T04:13:06;6.20;57.20
3198;DHT22;1611;49.394;11.136;2024-03-25T04:15:33;6.20;58.70
3198;DHT22;1611;49.394;11.136;2024-03-25T04:17:59;6.10;57.90
3198;DHT22;1611;49.394;11.136;2024-03-25T04:20:27;6.10;58.20
3198;DHT22;1611;49.394;11.136;2024-03-25T04:22:53;6.00;58.20
3198;DHT22;1611;49.394;11.136;2024-03-25T04:25:19;5.90;58.50
3198;DHT22;1611;49.394;11.136;2024-03-25T04:27:46;5.90;59.10
3198;DHT22;1611;49.394;11.136;2024-03-25T04:30:13;5.90;59.40
3198;DHT22;1611;49.394;11.136;2024-03-25T04:32:41;5.90;59.70
3198;DHT22;1611;49.394;11.136;2024-03-25T04:35:08;6.00;59.20
3198;DHT22;1611;49.394;11.136;2024-03-25T04:37:35;5.90;57.90
3198;DHT22;1611;49.394;11.136;2024-03-25T04:40:01;5.90;58.10
3198;DHT22;1611;49.394;11.136;2024-03-25T04:42:27;6.00;59.40
3198;DHT22;1611;49.394;11.136;2024-03-25T04:44:54;6.00;59.00
3198;DHT22;1611;49.394;11.136;2024-03-25T04:47:20;5.90;57.90
3198;DHT22;1611;49.394;11.136;2024-03-25T04:49:46;5.90;57.90
3198;DHT22;1611;49.394;11.136;2024-03-25T04:52:12;5.90;58.30
3198;DHT22;1611;49.394;11.136;2024-03-25T04:54:38;5.90;57.70
3198;DHT22;1611;49.394;11.136;2024-03-25T04:57:04;5.80;57.80
3198;DHT22;1611;49.394;11.136;2024-03-25T04:59:30;5.80;58.90
3198;DHT22;1611;49.394;11.136;2024-03-25T05:01:57;5.90;58.90
3198;DHT22;1611;49.394;11.136;2024-03-25T05:04:23;5.90;58.90
3198;DHT22;1611;49.394;11.136;2024-03-25T05:06:49;5.90;58.00
3198;DHT22;1611;49.394;11.136;2024-03-25T05:09:15;5.90;58.10
3198;DHT22;1611;49.394;11.136;2024-03-25T05:11:41;5.90;58.10
3198;DHT22;1611;49.394;11.136;2024-03-25T05:14:06;5.90;57.70
3198;DHT22;1611;49.394;11.136;2024-03-25T05:16:33;6.00;57.70
3198;DHT22;1611;49.394;11.136;2024-03-25T05:19:00;5.90;58.10
3198;DHT22;1611;49.394;11.136;2024-03-25T05:21:26;5.90;57.50
3198;DHT22;1611;49.394;11.136;2024-03-25T05:23:51;5.90;56.90
3198;DHT22;1611;49.394;11.136;2024-03-25T05:26:17;5.80;56.70
3198;DHT22;1611;49.394;11.136;2024-03-25T05:28:43;5.70;57.00
3198;DHT22;1611;49.394;11.136;2024-03-25T05:31:09;5.60;57.90
3198;DHT22;1611;49.394;11.136;2024-03-25T05:33:35;5.60;57.90
3198;DHT22;1611;49.394;11.136;2024-03-25T05:36:02;5.50;58.60
3198;DHT22;1611;49.394;11.136;2024-03-25T05:38:29;5.50;58.20
3198;DHT22;1611;49.394;11.136;2024-03-25T05:40:55;5.50;58.70
3198;DHT22;1611;49.394;11.136;2024-03-25T05:43:21;5.50;58.50
3198;DHT22;1611;49.394;11.136;2024-03-25T05:45:50;5.40;59.10
3198;DHT22;1611;49.394;11.136;2024-03-25T05:48:16;5.50;59.40
3198;DHT22;1611;49.394;11.136;2024-03-25T05:50:42;5.40;60.00
3198;DHT22;1611;49.394;11.136;2024-03-25T05:53:09;5.30;59.70
3198;DHT22;1611;49.394;11.136;2024-03-25T05:55:35;5.30;60.00
3198;DHT22;1611;49.394;11.136;2024-03-25T05:58:01;5.30;59.70
3198;DHT22;1611;49.394;11.136;2024-03-25T06:00:27;5.30;60.30
3198;DHT22;1611;49.394;11.136;2024-03-25T06:02:53;5.30;60.20
3198;DHT22;1611;49.394;11.136;2024-03-25T06:05:18;5.20;59.60
3198;DHT22;1611;49.394;11.136;2024-03-25T06:07:44;5.20;60.50
3198;DHT22;1611;49.394;11.136;2024-03-25T06:10:11;5.30;60.70
3198;DHT22;1611;49.394;11.136;2024-03-25T06:12:37;5.30;61.30
3198;DHT22;1611;49.394;11.136;2024-03-25T06:15:04;5.30;61.00
3198;DHT22;1611;49.394;11.136;2024-03-25T06:17:29;5.30;59.40
3198;DHT22;1611;49.394;11.136;2024-03-25T06:19:55;5.40;59.70
3198;DHT22;1611;49.394;11.136;2024-03-25T06:22:21;5.40;59.20
3198;DHT22;1611;49.394;11.136;2024-03-25T06:24:47;5.50;59.40
3198;DHT22;1611;49.394;11.136;2024-03-25T06:27:14;5.50;58.60
3198;DHT22;1611;49.394;11.136;2024-03-25T06:29:40;5.50;58.40
3198;DHT22;1611;49.394;11.136;2024-03-25T06:32:06;5.50;58.10
3198;DHT22;1611;49.394;11.136;2024-03-25T06:34:50;5.60;58.20
3198;DHT22;1611;49.394;11.136;2024-03-25T06:37:16;5.50;56.90
3198;DHT22;1611;49.394;11.136;2024-03-25T06:39:42;5.50;56.30
3198;DHT22;1611;49.394;11.136;2024-03-25T06:42:08;5.60;56.70
3198;DHT22;1611;49.394;11.136;2024-03-25T06:44:35;5.70;56.90
3198;DHT22;1611;49.394;11.136;2024-03-25T06:47:01;5.80;56.50
3198;DHT22;1611;49.394;11.136;2024-03-25T06:49:26;5.90;54.20
3198;DHT22;1611;49.394;11.136;2024-03-25T06:51:52;6.00;53.60
3198;DHT22;1611;49.394;11.136;2024-03-25T06:54:18;6.10;53.40
3198;DHT22;1611;49.394;11.136;2024-03-25T06:56:44;6.20;51.90
3198;DHT22;1611;49.394;11.136;2024-03-25T06:59:09;6.20;52.90
3198;DHT22;1611;49.394;11.136;2024-03-25T07:01:37;6.20;50.70
3198;DHT22;1611;49.394;11.136;2024-03-25T07:04:02;6.30;51.90
3198;DHT22;1611;49.394;11.136;2024-03-25T07:06:29;6.40;51.00
3198;DHT22;1611;49.394;11.136;2024-03-25T07:08:54;6.50;50.50
3198;DHT22;1611;49.394;11.136;2024-03-25T07:11:20;6.60;50.40
3198;DHT22;1611;49.394;11.136;2024-03-25T07:13:46;6.60;49.70
3198;DHT22;1611;49.394;11.136;2024-03-25T07:16:12;6.80;49.30
3198;DHT22;1611;49.394;11.136;2024-03-25T07:18:39;6.90;48.00
3198;DHT22;1611;49.394;11.136;2024-03-25T07:21:05;6.90;47.30
3198;DHT22;1611;49.394;11.136;2024-03-25T07:23:31;7.00;47.30
3198;DHT22;1611;49.394;11.136;2024-03-25T07:25:57;7.10;47.20
3198;DHT22;1611;49.394;11.136;2024-03-25T07:28:23;7.10;46.30
3198;DHT22;1611;49.394;11.136;2024-03-25T07:30:49;7.10;46.30
3198;DHT22;1611;49.394;11.136;2024-03-25T07:33:15;7.30;45.50
3198;DHT22;1611;49.394;11.136;2024-03-25T07:35:42;7.30;44.10
3198;DHT22;1611;49.394;11.136;2024-03-25T07:38:10;7.40;44.70
3198;DHT22;1611;49.394;11.136;2024-03-25T07:40:36;7.60;44.30
3198;DHT22;1611;49.394;11.136;2024-03-25T07:43:02;7.60;43.30
3198;DHT22;1611;49.394;11.136;2024-03-25T07:45:27;7.60;42.80
3198;DHT22;1611;49.394;11.136;2024-03-25T07:47:53;7.90;43.40
3198;DHT22;1611;49.394;11.136;2024-03-25T07:50:19;8.10;42.00
3198;DHT22;1611;49.394;11.136;2024-03-25T07:52:47;8.30;41.20
3198;DHT22;1611;49.394;11.136;2024-03-25T07:55:12;8.20;38.00
3198;DHT22;1611;49.394;11.136;2024-03-25T07:57:38;8.30;39.70
3198;DHT22;1611;49.394;11.136;2024-03-25T08:00:05;8.30;38.90
3198;DHT22;1611;49.394;11.136;2024-03-25T08:02:31;8.60;38.70
3198;DHT22;1611;49.394;11.136;2024-03-25T08:04:57;8.80;38.00
3198;DHT22;1611;49.394;11.136;2024-03-25T08:07:23;8.90;36.80
3198;DHT22;1611;49.394;11.136;2024-03-25T08:09:50;9.00;36.90
3198;DHT22;1611;49.394;11.136;2024-03-25T08:12:16;9.10;36.40
3198;DHT22;1611;49.394;11.136;2024-03-25T08:14:42;9.00;34.80
3198;DHT22;1611;49.394;11.136;2024-03-25T08:17:08;9.20;35.50
3198;DHT22;1611;49.394;11.136;2024-03-25T08:19:33;9.30;34.80
3198;DHT22;1611;49.394;11.136;2024-03-25T08:21:59;9.40;34.20
3198;DHT22;1611;49.394;11.136;2024-03-25T08:24:25;9.60;33.00
3198;DHT22;1611;49.394;11.136;2024-03-25T08:26:52;9.70;33.40
3198;DHT22;1611;49.394;11.136;2024-03-25T08:29:18;9.80;34.00
3198;DHT22;1611;49.394;11.136;2024-03-25T08:31:44;9.80;32.10
3198;DHT22;1611;49.394;11.136;2024-03-25T08:34:09;9.90;32.30
3198;DHT22;1611;49.394;11.136;2024-03-25T08:36:35;10.10;32.90
3198;DHT22;1611;49.394;11.136;2024-03-25T08:39:01;10.40;30.40
3198;DHT22;1611;49.394;11.136;2024-03-25T08:41:27;10.50;30.20
3198;DHT22;1611;49.394;11.136;2024-03-25T08:43:54;10.40;28.70
3198;DHT22;1611;49.394;11.136;2024-03-25T08:46:20;10.50;29.20
3198;DHT22;1611;49.394;11.136;2024-03-25T08:48:46;10.30;27.50
3198;DHT22;1611;49.394;11.136;2024-03-25T08:51:12;10.20;28.50
3198;DHT22;1611;49.394;11.136;2024-03-25T08:53:38;10.10;29.10
3198;DHT22;1611;49.394;11.136;2024-03-25T08:56:04;9.80;28.90
3198;DHT22;1611;49.394;11.136;2024-03-25T08:58:30;9.50;30.70
3198;DHT22;1611;49.394;11.136;2024-03-25T09:00:57;9.30;30.30
3198;DHT22;1611;49.394;11.136;2024-03-25T09:03:23;9.50;31.90
3198;DHT22;1611;49.394;11.136;2024-03-25T09:05:49;9.60;30.30
3198;DHT22;1611;49.394;11.136;2024-03-25T09:08:15;9.60;28.30
3198;DHT22;1611;49.394;11.136;2024-03-25T09:10:43;9.60;30.40
3198;DHT22;1611;49.394;11.136;2024-03-25T09:13:27;9.60;30.50
3198;DHT22;1611;49.394;11.136;2024-03-25T09:15:53;9.70;29.70
3198;DHT22;1611;49.394;11.136;2024-03-25T09:18:20;9.70;31.10
3198;DHT22;1611;49.394;11.136;2024-03-25T09:20:46;9.60;30.40
3198;DHT22;1611;49.394;11.136;2024-03-25T09:23:11;9.40;28.80
3198;DHT22;1611;49.394;11.136;2024-03-25T09:25:37;9.50;31.30
3198;DHT22;1611;49.394;11.136;2024-03-25T09:28:04;10.00;29.30
3198;DHT22;1611;49.394;11.136;2024-03-25T09:30:32;10.30;29.40
3198;DHT22;1611;49.394;11.136;2024-03-25T09:32:58;10.60;28.40
3198;DHT22;1611;49.394;11.136;2024-03-25T09:35:25;10.90;26.40
3198;DHT22;1611;49.394;11.136;2024-03-25T09:37:51;11.10;30.20
3198;DHT22;1611;49.394;11.136;2024-03-25T09:40:17;11.10;24.70
3198;DHT22;1611;49.394;11.136;2024-03-25T09:42:49;10.80;24.90
3198;DHT22;1611;49.394;11.136;2024-03-25T09:45:18;11.10;28.10
3198;DHT22;1611;49.394;11.136;2024-03-25T09:47:46;11.50;25.40
3198;DHT22;1611;49.394;11.136;2024-03-25T09:50:13;11.40;24.30
3198;DHT22;1611;49.394;11.136;2024-03-25T09:52:40;11.60;22.60
3198;DHT22;1611;49.394;11.136;2024-03-25T09:55:06;11.90;21.90
3198;DHT22;1611;49.394;11.136;2024-03-25T09:57:33;11.90;23.00
3198;DHT22;1611;49.394;11.136;2024-03-25T09:59:59;11.70;20.90
3198;DHT22;1611;49.394;11.136;2024-03-25T10:02:27;11.10;21.40
3198;DHT22;1611;49.394;11.136;2024-03-25T10:04:53;10.80;24.20
3198;DHT22;1611;49.394;11.136;2024-03-25T10:07:22;10.90;21.90
3198;DHT22;1611;49.394;11.136;2024-03-25T10:09:49;11.10;22.80
3198;DHT22;1611;49.394;11.136;2024-03-25T10:12:15;11.20;22.80
3198;DHT22;1611;49.394;11.136;2024-03-25T10:14:41;11.10;22.70
3198;DHT22;1611;49.394;11.136;2024-03-25T10:17:07;11.40;22.70
3198;DHT22;1611;49.394;11.136;2024-03-25T10:19:33;11.80;21.40
3198;DHT22;1611;49.394;11.136;2024-03-25T10:22:04;12.00;21.80
3198;DHT22;1611;49.394;11.136;2024-03-25T10:24:37;12.20;20.80
3198;DHT22;1611;49.394;11.136;2024-03-25T10:27:05;12.30;21.60
3198;DHT22;1611;49.394;11.136;2024-03-25T10:29:30;12.60;20.40
3198;DHT22;1611;49.394;11.136;2024-03-25T10:31:59;12.70;19.90
3198;DHT22;1611;49.394;11.136;2024-03-25T10:34:25;13.20;19.60
3198;DHT22;1611;49.394;11.136;2024-03-25T10:36:55;13.50;18.80
3198;DHT22;1611;49.394;11.136;2024-03-25T10:39:25;13.70;18.00
3198;DHT22;1611;49.394;11.136;2024-03-25T10:41:54;14.70;18.10
3198;DHT22;1611;49.394;11.136;2024-03-25T10:44:22;15.60;15.50
3198;DHT22;1611;49.394;11.136;2024-03-25T10:46:50;15.70;13.90
3198;DHT22;1611;49.394;11.136;2024-03-25T10:49:23;15.30;15.90
3198;DHT22;1611;49.394;11.136;2024-03-25T10:51:52;16.30;13.10
3198;DHT22;1611;49.394;11.136;2024-03-25T10:54:20;17.90;12.30
3198;DHT22;1611;49.394;11.136;2024-03-25T10:56:46;19.10;10.70
3198;DHT22;1611;49.394;11.136;2024-03-25T10:59:13;20.70;10.00
3198;DHT22;1611;49.394;11.136;2024-03-25T11:01:40;21.20;8.40
3198;DHT22;1611;49.394;11.136;2024-03-25T11:04:06;22.30;6.50
3198;DHT22;1611;49.394;11.136;2024-03-25T11:06:32;22.90;4.60
3198;DHT22;1611;49.394;11.136;2024-03-25T11:08:58;22.50;5.70
3198;DHT22;1611;49.394;11.136;2024-03-25T11:11:31;22.50;4.10
3198;DHT22;1611;49.394;11.136;2024-03-25T11:13:56;22.80;4.90
3198;DHT22;1611;49.394;11.136;2024-03-25T11:16:28;23.50;4.30
3198;DHT22;1611;49.394;11.136;2024-03-25T11:18:59;24.10;3.10
3198;DHT22;1611;49.394;11.136;2024-03-25T11:21:25;25.00;1.20
3198;DHT22;1611;49.394;11.136;2024-03-25T11:23:51;24.80;1.00
3198;DHT22;1611;49.394;11.136;2024-03-25T11:26:18;24.20;1.00
3198;DHT22;1611;49.394;11.136;2024-03-25T11:28:45;24.40;1.00
3198;DHT22;1611;49.394;11.136;2024-03-25T11:31:11;24.80;1.00
3198;DHT22;1611;49.394;11.136;2024-03-25T11:33:37;24.40;1.00
3198;DHT22;1611;49.394;11.136;2024-03-25T11:36:05;24.90;1.50
3198;DHT22;1611;49.394;11.136;2024-03-25T11:38:32;24.00;1.00
3198;DHT22;1611;49.394;11.136;2024-03-25T11:40:58;23.30;1.00
3198;DHT22;1611;49.394;11.136;2024-03-25T11:43:24;24.10;1.50
3198;DHT22;1611;49.394;11.136;2024-03-25T11:45:50;24.80;1.00
3198;DHT22;1611;49.394;11.136;2024-03-25T11:48:15;24.70;1.00
3198;DHT22;1611;49.394;11.136;2024-03-25T11:50:44;24.70;1.20
3198;DHT22;1611;49.394;11.136;2024-03-25T11:53:13;25.50;1.00
3198;DHT22;1611;49.394;11.136;2024-03-25T11:55:39;25.30;1.00
3198;DHT22;1611;49.394;11.136;2024-03-25T11:58:05;26.20;1.00
3198;DHT22;1611;49.394;11.136;2024-03-25T12:00:30;26.60;1.00
3198;DHT22;1611;49.394;11.136;2024-03-25T12:02:56;26.80;1.00
3198;DHT22;1611;49.394;11.136;2024-03-25T12:05:22;27.60;1.00
3198;DHT22;1611;49.394;11.136;2024-03-25T12:07:48;28.40;1.00
3198;DHT22;1611;49.394;11.136;2024-03-25T12:10:16;28.60;1.00
3198;DHT22;1611;49.394;11.136;2024-03-25T12:13:00;28.00;1.00
3198;DHT22;1611;49.394;11.136;2024-03-25T12:15:26;27.30;1.00
3198;DHT22;1611;49.394;11.136;2024-03-25T12:17:52;27.90;1.00
3198;DHT22;1611;49.394;11.136;2024-03-25T12:20:19;28.20;1.00
3198;DHT22;1611;49.394;11.136;2024-03-25T12:22:45;27.40;1.00
3198;DHT22;1611;49.394;11.136;2024-03-25T12:25:11;28.40;1.00
3198;DHT22;1611;49.394;11.136;2024-03-25T12:27:39;28.90;1.00
3198;DHT22;1611;49.394;11.136;2024-03-25T12:30:06;28.80;1.00
3198;DHT22;1611;49.394;11.136;2024-03-25T12:32:39;29.30;1.00
3198;DHT22;1611;49.394;11.136;2024-03-25T12:35:08;27.90;1.00
3198;DHT22;1611;49.394;11.136;2024-03-25T12:37:35;26.10;1.00
3198;DHT22;1611;49.394;11.136;2024-03-25T12:40:01;25.60;1.00
3198;DHT22;1611;49.394;11.136;2024-03-25T12:42:27;25.10;1.00
3198;DHT22;1611;49.394;11.136;2024-03-25T12:44:55;23.90;1.00
3198;DHT22;1611;49.394;11.136;2024-03-25T12:47:20;23.10;1.80
3198;DHT22;1611;49.394;11.136;2024-03-25T12:49:46;22.90;1.30
3198;DHT22;1611;49.394;11.136;2024-03-25T12:52:12;22.90;1.40
3198;DHT22;1611;49.394;11.136;2024-03-25T12:54:38;23.10;1.40
3198;DHT22;1611;49.394;11.136;2024-03-25T12:57:04;23.40;1.80
3198;DHT22;1611;49.394;11.136;2024-03-25T12:59:30;23.70;1.00
3198;DHT22;1611;49.394;11.136;2024-03-25T13:01:57;24.00;1.00
3198;DHT22;1611;49.394;11.136;2024-03-25T13:04:22;23.40;1.00
3198;DHT22;1611;49.394;11.136;2024-03-25T13:06:48;23.40;1.10
3198;DHT22;1611;49.394;11.136;2024-03-25T13:09:14;22.40;1.00
3198;DHT22;1611;49.394;11.136;2024-03-25T13:11:40;21.50;2.60
3198;DHT22;1611;49.394;11.136;2024-03-25T13:14:06;20.20;3.40
3198;DHT22;1611;49.394;11.136;2024-03-25T13:16:32;19.70;4.10
3198;DHT22;1611;49.394;11.136;2024-03-25T13:18:59;20.70;4.90
3198;DHT22;1611;49.394;11.136;2024-03-25T13:21:25;21.50;2.90
3198;DHT22;1611;49.394;11.136;2024-03-25T13:23:50;22.40;3.20
3198;DHT22;1611;49.394;11.136;2024-03-25T13:26:16;23.50;1.40
3198;DHT22;1611;49.394;11.136;2024-03-25T13:28:42;23.00;1.50
3198;DHT22;1611;49.394;11.136;2024-03-25T13:31:08;22.80;1.90
3198;DHT22;1611;49.394;11.136;2024-03-25T13:33:34;22.70;1.80
3198;DHT22;1611;49.394;11.136;2024-03-25T13:36:01;21.90;2.10
3198;DHT22;1611;49.394;11.136;2024-03-25T13:38:27;20.20;4.10
3198;DHT22;1611;49.394;11.136;2024-03-25T13:40:52;19.10;5.20
3198;DHT22;1611;49.394;11.136;2024-03-25T13:43:18;18.10;6.40
3198;DHT22;1611;49.394;11.136;2024-03-25T13:45:47;17.20;6.90
3198;DHT22;1611;49.394;11.136;2024-03-25T13:48:13;17.00;8.10
3198;DHT22;1611;49.394;11.136;2024-03-25T13:50:39;16.50;8.90
3198;DHT22;1611;49.394;11.136;2024-03-25T13:53:07;15.90;9.00
3198;DHT22;1611;49.394;11.136;2024-03-25T13:55:32;15.50;9.90
3198;DHT22;1611;49.394;11.136;2024-03-25T13:57:58;15.30;10.40
3198;DHT22;1611;49.394;11.136;2024-03-25T14:00:24;15.20;10.40
3198;DHT22;1611;49.394;11.136;2024-03-25T14:02:50;15.20;11.30
3198;DHT22;1611;49.394;11.136;2024-03-25T14:05:15;14.90;10.90
3198;DHT22;1611;49.394;11.136;2024-03-25T14:07:41;14.60;11.60
3198;DHT22;1611;49.394;11.136;2024-03-25T14:10:09;14.50;10.50
3198;DHT22;1611;49.394;11.136;2024-03-25T14:12:35;14.40;11.50
3198;DHT22;1611;49.394;11.136;2024-03-25T14:15:00;14.40;11.90
3198;DHT22;1611;49.394;11.136;2024-03-25T14:17:26;14.40;11.00
3198;DHT22;1611;49.394;11.136;2024-03-25T14:19:53;14.40;11.40
3198;DHT22;1611;49.394;11.136;2024-03-25T14:22:21;14.50;12.10
3198;DHT22;1611;49.394;11.136;2024-03-25T14:24:46;14.50;11.10
3198;DHT22;1611;49.394;11.136;2024-03-25T14:27:14;14.40;11.90
3198;DHT22;1611;49.394;11.136;2024-03-25T14:29:40;14.20;10.50
3198;DHT22;1611;49.394;11.136;2024-03-25T14:32:06;13.80;10.90
3198;DHT22;1611;49.394;11.136;2024-03-25T14:34:32;13.70;12.00
3198;DHT22;1611;49.394;11.136;2024-03-25T14:36:58;13.90;12.40
3198;DHT22;1611;49.394;11.136;2024-03-25T14:39:23;14.20;12.10
3198;DHT22;1611;49.394;11.136;2024-03-25T14:41:50;15.40;9.90
3198;DHT22;1611;49.394;11.136;2024-03-25T14:44:17;17.20;6.70
3198;DHT22;1611;49.394;11.136;2024-03-25T14:46:42;19.50;5.90
3198;DHT22;1611;49.394;11.136;2024-03-25T14:49:08;21.40;3.40
3198;DHT22;1611;49.394;11.136;2024-03-25T14:51:34;22.20;1.90
3198;DHT22;1611;49.394;11.136;2024-03-25T14:54:00;22.10;1.80
3198;DHT22;1611;49.394;11.136;2024-03-25T14:56:26;20.80;2.40
3198;DHT22;1611;49.394;11.136;2024-03-25T14:58:51;19.70;3.70
3198;DHT22;1611;49.394;11.136;2024-03-25T15:01:18;19.00;5.00
3198;DHT22;1611;49.394;11.136;2024-03-25T15:03:44;18.80;5.60
3198;DHT22;1611;49.394;11.136;2024-03-25T15:06:10;18.60;5.70
3198;DHT22;1611;49.394;11.136;2024-03-25T15:08:36;18.00;6.50
3198;DHT22;1611;49.394;11.136;2024-03-25T15:11:02;17.20;6.40
3198;DHT22;1611;49.394;11.136;2024-03-25T15:13:28;16.80;7.30
3198;DHT22;1611;49.394;11.136;2024-03-25T15:15:53;16.70;8.20
3198;DHT22;1611;49.394;11.136;2024-03-25T15:18:20;17.60;7.80
3198;DHT22;1611;49.394;11.136;2024-03-25T15:20:46;18.80;6.00
3198;DHT22;1611;49.394;11.136;2024-03-25T15:23:12;19.00;6.10
3198;DHT22;1611;49.394;11.136;2024-03-25T15:25:38;18.70;6.10
3198;DHT22;1611;49.394;11.136;2024-03-25T15:28:04;18.50;6.50
3198;DHT22;1611;49.394;11.136;2024-03-25T15:30:30;19.20;5.30
3198;DHT22;1611;49.394;11.136;2024-03-25T15:32:56;20.00;4.30
3198;DHT22;1611;49.394;11.136;2024-03-25T15:35:23;20.20;3.80
3198;DHT22;1611;49.394;11.136;2024-03-25T15:37:49;19.70;4.40
3198;DHT22;1611;49.394;11.136;2024-03-25T15:40:15;19.70;4.80
3198;DHT22;1611;49.394;11.136;2024-03-25T15:42:41;19.40;5.30
3198;DHT22;1611;49.394;11.136;2024-03-25T15:45:08;19.90;5.00
3198;DHT22;1611;49.394;11.136;2024-03-25T15:47:34;20.90;3.80
3198;DHT22;1611;49.394;11.136;2024-03-25T15:50:00;21.30;3.70
3198;DHT22;1611;49.394;11.136;2024-03-25T15:52:27;21.00;3.80
3198;DHT22;1611;49.394;11.136;2024-03-25T15:54:52;20.80;4.30